createdAt,value
2023-04-15T00:40:26.301Z,15.96
2023-04-15T00:46:07.599Z,15.93
2023-04-15T00:51:50.455Z,15.91
2023-04-15T00:57:33.684Z,15.89
2023-04-15T01:03:16.382Z,15.89
2023-04-15T01:09:00.017Z,15.84
2023-04-15T01:14:43.013Z,15.80
2023-04-15T01:20:26.175Z,15.76
2023-04-15T01:26:09.561Z,15.73
2023-04-15T01:31:53.861Z,15.69
2023-04-15T01:37:36.960Z,15.67
2023-04-15T01:43:23.952Z,15.65
2023-04-15T01:48:30.283Z,15.66
2023-04-15T01:58:38.118Z,15.59
2023-04-15T02:09:11.191Z,15.50
2023-04-15T02:17:09.213Z,15.48
2023-04-15T02:27:49.411Z,15.44
2023-04-15T02:32:52.408Z,15.41
2023-04-15T02:37:54.771Z,15.36
2023-04-15T02:42:56.908Z,15.33
2023-04-15T02:48:01.526Z,15.33
2023-04-15T02:53:04.417Z,15.31
2023-04-15T02:58:07.176Z,15.30
2023-04-15T03:03:10.957Z,15.29
2023-04-15T03:08:13.070Z,15.27
2023-04-15T03:13:14.995Z,15.23
2023-04-15T03:18:18.016Z,15.20
2023-04-15T03:23:20.116Z,15.19
2023-04-15T03:28:23.577Z,15.16
2023-04-15T03:33:26.608Z,15.13
2023-04-15T03:38:28.857Z,15.10
2023-04-15T03:43:30.912Z,15.07
2023-04-15T03:48:33.000Z,15.05
2023-04-15T03:53:35.007Z,15.03
2023-04-15T03:58:37.096Z,15.03
2023-04-15T04:04:04.997Z,15.00
2023-04-15T04:09:25.951Z,14.98
2023-04-15T04:14:29.853Z,14.92
2023-04-15T04:19:32.093Z,14.86
2023-04-15T04:24:34.011Z,14.78
2023-04-15T04:29:36.181Z,14.77
2023-04-15T04:34:38.596Z,14.76
2023-04-15T04:39:41.860Z,14.77
2023-04-15T04:44:44.294Z,14.78
2023-04-15T04:49:46.511Z,14.78
2023-04-15T04:54:48.518Z,14.75
2023-04-15T04:59:51.301Z,14.75
2023-04-15T05:04:54.753Z,14.73
2023-04-15T05:09:56.878Z,14.71
2023-04-15T05:14:58.855Z,14.66
2023-04-15T05:20:02.094Z,14.64
2023-04-15T05:25:04.488Z,14.64
2023-04-15T05:30:07.451Z,14.62
2023-04-15T05:35:09.851Z,14.61
2023-04-15T05:40:13.237Z,14.63
2023-04-15T05:45:19.655Z,14.64
2023-04-15T05:50:21.806Z,14.66
2023-04-15T05:55:23.689Z,14.67
2023-04-15T06:00:26.143Z,14.72
2023-04-15T06:05:28.348Z,14.73
2023-04-15T06:10:30.986Z,14.87
2023-04-15T06:15:32.884Z,14.90
2023-04-15T06:20:36.982Z,14.94
2023-04-15T06:25:39.004Z,14.97
2023-04-15T06:30:41.202Z,14.98
2023-04-15T06:35:43.354Z,15.04
2023-04-15T06:40:46.034Z,15.10
2023-04-15T06:45:48.139Z,15.16
2023-04-15T06:50:50.306Z,15.24
2023-04-15T06:55:52.308Z,15.46
2023-04-15T07:00:54.573Z,15.84
2023-04-15T07:05:56.877Z,16.26
2023-04-15T07:10:58.743Z,16.73
2023-04-15T07:16:00.857Z,17.11
2023-04-15T07:21:04.475Z,17.37
2023-04-15T07:26:06.497Z,17.62
2023-04-15T07:31:08.435Z,17.89
2023-04-15T07:36:11.047Z,18.15
2023-04-15T07:41:13.295Z,18.31
2023-04-15T07:46:15.577Z,18.48
2023-04-15T07:51:17.925Z,18.69
2023-04-15T07:56:20.533Z,18.93
2023-04-15T08:01:23.061Z,19.15
2023-04-15T08:06:25.488Z,19.26
2023-04-15T08:11:27.908Z,19.46
2023-04-15T08:16:30.207Z,19.64
2023-04-15T08:21:32.489Z,19.82
2023-04-15T08:26:34.655Z,20.04
2023-04-15T08:31:37.223Z,20.21
2023-04-15T08:36:40.903Z,20.38
2023-04-15T08:41:48.059Z,20.51
2023-04-15T08:46:51.835Z,20.69
2023-04-15T08:51:56.676Z,20.88
2023-04-15T08:57:02.688Z,21.05
2023-04-15T09:02:04.998Z,21.23
2023-04-15T09:07:07.517Z,21.39
2023-04-15T09:12:10.584Z,21.51
2023-04-15T09:17:13.027Z,21.66
2023-04-15T09:22:15.669Z,21.83
2023-04-15T09:27:21.223Z,21.85
2023-04-15T09:32:24.975Z,21.77
2023-04-15T09:37:37.038Z,21.45
2023-04-15T09:42:58.036Z,21.04
2023-04-15T09:48:22.826Z,20.77
2023-04-15T09:53:26.207Z,20.55
2023-04-15T09:58:33.390Z,20.50
2023-04-15T10:03:39.111Z,20.40
2023-04-15T10:08:41.968Z,20.27
2023-04-15T10:13:49.267Z,20.28
2023-04-15T10:18:58.621Z,20.35
2023-04-15T10:24:03.881Z,20.62
2023-04-15T10:29:06.601Z,20.83
2023-04-15T10:34:09.539Z,20.86
2023-04-15T10:39:34.998Z,20.59
2023-04-15T10:44:38.981Z,20.61
2023-04-15T10:49:51.099Z,20.56
2023-04-15T10:55:23.745Z,20.70
2023-04-15T11:00:27.053Z,20.58
2023-04-15T11:05:52.414Z,20.52
2023-04-15T11:10:54.657Z,20.66
2023-04-15T11:15:58.562Z,20.85
2023-04-15T11:21:06.105Z,21.04
2023-04-15T11:26:11.771Z,21.22
2023-04-15T11:31:16.539Z,21.23
2023-04-15T11:36:18.707Z,20.93
2023-04-15T11:41:22.672Z,20.87
2023-04-15T11:46:34.141Z,20.66
2023-04-15T11:51:36.538Z,20.77
2023-04-15T11:56:38.819Z,20.74
2023-04-15T12:01:43.739Z,20.64
2023-04-15T12:06:46.065Z,20.58
2023-04-15T12:11:55.390Z,20.25
2023-04-15T12:17:03.427Z,20.37
2023-04-15T12:22:22.529Z,20.38
2023-04-15T12:27:29.275Z,20.40
2023-04-15T12:32:36.036Z,20.35
2023-04-15T12:37:38.165Z,20.35
2023-04-15T12:42:40.624Z,20.16
2023-04-15T12:47:42.805Z,20.13
2023-04-15T12:52:45.233Z,20.31
2023-04-15T12:57:47.355Z,20.55
2023-04-15T13:02:49.696Z,20.61
2023-04-15T13:07:51.984Z,20.60
2023-04-15T13:12:54.324Z,20.49
2023-04-15T13:17:56.839Z,20.07
2023-04-15T13:23:03.319Z,19.60
2023-04-15T13:28:05.547Z,19.85
2023-04-15T13:33:07.700Z,20.12
2023-04-15T13:38:09.852Z,20.41
2023-04-15T13:43:12.557Z,20.53
2023-04-15T13:48:14.766Z,20.60
2023-04-15T13:53:16.950Z,20.52
2023-04-15T13:58:19.087Z,20.59
2023-04-15T14:03:21.337Z,20.47
2023-04-15T14:08:25.017Z,20.53
2023-04-15T14:13:27.218Z,20.74
2023-04-15T14:18:30.474Z,20.84
2023-04-15T14:23:32.676Z,20.91
2023-04-15T14:28:34.693Z,20.77
2023-04-15T14:35:13.657Z,20.50
2023-04-15T14:40:15.775Z,20.11
2023-04-15T14:45:19.913Z,19.90
2023-04-15T14:50:22.224Z,19.57
2023-04-15T14:55:24.271Z,19.35
2023-04-15T15:00:26.322Z,19.09
2023-04-15T15:05:28.877Z,19.17
2023-04-15T15:10:34.768Z,19.11
2023-04-15T15:15:51.012Z,19.05
2023-04-15T15:20:53.335Z,18.97
2023-04-15T15:25:55.470Z,18.90
2023-04-15T15:30:57.678Z,18.76
2023-04-15T15:39:39.181Z,18.53
2023-04-15T15:44:42.015Z,18.37
2023-04-15T15:49:44.609Z,18.41
2023-04-15T15:54:49.687Z,18.35
2023-04-15T16:00:04.772Z,18.29
2023-04-15T16:05:12.277Z,18.18
2023-04-15T16:10:15.309Z,18.00
2023-04-15T16:15:17.369Z,17.99
2023-04-15T16:20:22.274Z,17.92
2023-04-15T16:25:27.204Z,17.79
2023-04-15T16:30:33.687Z,17.73
2023-04-15T16:35:36.043Z,17.69
2023-04-15T16:40:38.537Z,17.64
2023-04-15T16:45:40.723Z,17.43
2023-04-15T16:50:43.305Z,17.20
2023-04-15T16:55:45.459Z,17.15
2023-04-15T17:00:47.759Z,17.11
2023-04-15T17:05:49.769Z,17.15
2023-04-15T17:10:51.945Z,16.98
2023-04-15T17:15:55.719Z,16.91
2023-04-15T17:20:59.314Z,17.07
2023-04-15T17:26:02.125Z,17.14
2023-04-15T17:31:04.915Z,17.22
2023-04-15T17:36:07.347Z,17.17
2023-04-15T17:41:10.397Z,17.07
2023-04-15T17:46:13.529Z,17.05
2023-04-15T17:51:16.057Z,17.13
2023-04-15T17:56:18.236Z,17.18
2023-04-15T18:01:22.409Z,17.10
2023-04-15T18:06:29.078Z,17.08
2023-04-15T18:11:38.310Z,17.05
2023-04-15T18:16:42.727Z,16.91
2023-04-15T18:21:46.283Z,16.87
2023-04-15T18:26:52.680Z,16.91
2023-04-15T18:31:54.859Z,16.89
2023-04-15T18:36:58.222Z,16.91
2023-04-15T18:42:00.422Z,16.90
2023-04-15T18:47:02.926Z,16.88
2023-04-15T18:52:05.367Z,16.84
2023-04-15T18:57:07.790Z,16.83
2023-04-15T19:02:09.958Z,16.79
2023-04-15T19:07:13.313Z,16.80
2023-04-15T19:12:20.460Z,16.79
2023-04-15T19:17:22.589Z,16.76
2023-04-15T19:22:25.029Z,16.76
2023-04-15T19:27:27.424Z,16.74
2023-04-15T19:32:29.724Z,16.72
2023-04-15T19:37:41.958Z,16.70
2023-04-15T19:42:44.219Z,16.70
2023-04-15T19:47:46.879Z,16.69
2023-04-15T19:52:49.917Z,16.68
2023-04-15T19:57:52.152Z,16.67
2023-04-15T20:02:56.788Z,16.65
2023-04-15T20:08:00.633Z,16.64
2023-04-15T20:13:02.918Z,16.64
2023-04-15T20:18:05.108Z,16.63
2023-04-15T20:23:11.194Z,16.62
2023-04-15T20:28:13.941Z,16.55
2023-04-15T20:33:16.655Z,16.50
2023-04-15T20:38:18.986Z,16.50
2023-04-15T20:43:21.923Z,16.46
2023-04-15T20:48:24.544Z,16.42
2023-04-15T20:53:26.926Z,16.38
2023-04-15T20:58:28.986Z,16.35
2023-04-15T21:03:31.319Z,16.33
2023-04-15T21:08:33.599Z,16.31
2023-04-15T21:13:35.464Z,16.30
2023-04-15T21:18:43.615Z,16.27
2023-04-15T21:23:45.988Z,16.26
2023-04-15T21:28:48.155Z,16.25
2023-04-15T21:33:50.231Z,16.22
2023-04-15T21:40:16.137Z,16.25
2023-04-15T21:45:18.850Z,16.22
2023-04-15T21:50:21.295Z,16.18
2023-04-15T21:55:23.549Z,16.15
2023-04-15T22:00:25.997Z,16.12
2023-04-15T22:05:28.307Z,16.07
2023-04-15T22:10:31.733Z,16.02
2023-04-15T22:15:35.835Z,15.93
2023-04-15T22:20:38.083Z,15.84
2023-04-15T22:25:40.572Z,15.81
2023-04-15T22:30:43.214Z,15.77
2023-04-15T22:35:45.501Z,15.71
2023-04-15T22:40:50.030Z,15.68
2023-04-15T22:45:56.842Z,15.67
2023-04-15T22:50:59.100Z,15.71
2023-04-15T22:56:01.046Z,15.68
2023-04-15T23:01:12.585Z,15.65
2023-04-15T23:06:15.436Z,15.64
2023-04-15T23:11:18.512Z,15.62
2023-04-15T23:16:21.051Z,15.59
2023-04-15T23:21:24.761Z,15.55
2023-04-15T23:26:28.392Z,15.51
2023-04-15T23:31:30.516Z,15.48
2023-04-15T23:36:33.075Z,15.44
2023-04-15T23:41:36.666Z,15.38
2023-04-15T23:46:38.835Z,15.33
2023-04-15T23:51:40.969Z,15.22
2023-04-15T23:56:42.949Z,15.14
